Urbandale, Iowa
Current Conditions -  °F | °C
As of 11:54 PM on Wednesday 22 Oct 2014 (Local Time) from KDSM Reporting Station
Broken Clouds Broken Clouds  
Wind Chill: 56°   Ceiling: 25000
Heat Index: 56°   Visibility: 10mi
Dew Point: 44°   Wind: 12mph
Humidity: 64%   Direction: 160°SSE
Pressure: 30.09"   Gusts: NA
Location:  41.63°N, 93.71°W
Report Text: KDSM 230454Z 16010KT 10SM SCT090 BKN250 13/07 A3009 RMK AO2 SLP190 T01330067
Loading
Personal Weather Stations






























Interactive Weather Map New forecast layout! Learn more

10-Day Weather Forecast

Advertisements
Track Severe Weather on mobile